createdAt,value
2023-05-11T00:00:10.871Z,16.26
2023-05-11T00:02:38.842Z,16.26
2023-05-11T00:05:07.869Z,16.24
2023-05-11T00:07:35.765Z,16.23
2023-05-11T00:10:03.567Z,16.15
2023-05-11T00:12:31.351Z,15.94
2023-05-11T00:14:59.191Z,16.08
2023-05-11T00:17:28.408Z,15.99
2023-05-11T00:19:56.289Z,15.80
2023-05-11T00:22:24.050Z,15.83
2023-05-11T00:24:51.796Z,15.83
2023-05-11T00:27:19.651Z,15.80
2023-05-11T00:29:47.452Z,15.75
2023-05-11T00:32:15.375Z,15.84
2023-05-11T00:34:44.560Z,15.79
2023-05-11T00:37:12.335Z,15.70
2023-05-11T00:39:40.679Z,15.64
2023-05-11T00:42:08.727Z,15.70
2023-05-11T00:44:36.536Z,15.50
2023-05-11T00:47:04.770Z,15.36
2023-05-11T00:49:32.702Z,15.44
2023-05-11T00:52:03.149Z,15.40
2023-05-11T00:54:32.043Z,15.30
2023-05-11T00:56:59.997Z,15.41
2023-05-11T00:59:28.227Z,15.32
2023-05-11T01:01:56.462Z,15.37
2023-05-11T01:04:24.706Z,15.37
2023-05-11T01:07:02.131Z,15.34
2023-05-11T01:09:45.758Z,15.29
2023-05-11T01:12:22.655Z,15.18
2023-05-11T01:14:59.013Z,15.32
2023-05-11T01:17:37.745Z,15.27
2023-05-11T01:20:10.684Z,15.37
2023-05-11T01:22:52.118Z,15.31
2023-05-11T01:25:36.121Z,15.40
2023-05-11T01:28:27.081Z,15.41
2023-05-11T01:31:05.209Z,15.42
2023-05-11T01:33:35.346Z,15.46
2023-05-11T01:36:07.748Z,15.52
2023-05-11T01:38:38.483Z,15.52
2023-05-11T01:41:13.337Z,15.54
2023-05-11T01:43:44.127Z,15.54
2023-05-11T01:46:15.113Z,15.55
2023-05-11T01:48:48.084Z,15.52
2023-05-11T01:51:19.073Z,15.42
2023-05-11T01:53:49.080Z,15.56
2023-05-11T01:56:18.918Z,15.47
2023-05-11T01:58:50.928Z,15.57
2023-05-11T02:01:20.922Z,15.52
2023-05-11T02:03:52.082Z,15.49
2023-05-11T02:06:21.216Z,15.52
2023-05-11T02:08:51.511Z,15.47
2023-05-11T02:11:21.981Z,15.48
2023-05-11T02:13:51.833Z,15.25
2023-05-11T02:16:23.207Z,15.41
2023-05-11T02:18:52.000Z,15.39
2023-05-11T02:21:21.087Z,15.37
2023-05-11T02:23:51.376Z,15.44
2023-05-11T02:26:19.470Z,14.96
2023-05-11T02:28:47.385Z,15.42
2023-05-11T02:31:20.170Z,15.42
2023-05-11T02:33:52.581Z,15.40
2023-05-11T02:36:23.399Z,15.44
2023-05-11T02:38:59.584Z,15.47
2023-05-11T02:41:30.494Z,15.52
2023-05-11T02:44:04.783Z,15.53
2023-05-11T02:46:37.687Z,15.49
2023-05-11T02:49:10.359Z,15.56
2023-05-11T02:51:42.370Z,15.46
2023-05-11T02:54:11.995Z,15.36
2023-05-11T02:56:44.831Z,15.47
2023-05-11T02:59:13.746Z,15.40
2023-05-11T03:01:42.246Z,15.34
2023-05-11T03:04:13.335Z,15.29
2023-05-11T03:06:41.460Z,15.38
2023-05-11T03:09:10.692Z,15.39
2023-05-11T03:11:44.286Z,15.38
2023-05-11T03:14:13.271Z,15.44
2023-05-11T03:16:43.958Z,15.30
2023-05-11T03:19:14.618Z,15.36
2023-05-11T03:21:42.975Z,15.39
2023-05-11T03:24:12.007Z,15.42
2023-05-11T03:26:42.503Z,15.41
2023-05-11T03:29:12.703Z,14.97
2023-05-11T03:31:40.895Z,15.45
2023-05-11T03:34:08.782Z,15.35
2023-05-11T03:36:43.698Z,15.47
2023-05-11T03:39:13.462Z,15.34
2023-05-11T03:41:42.483Z,15.35
2023-05-11T03:44:14.166Z,15.36
2023-05-11T03:46:45.657Z,15.34
2023-05-11T03:49:15.656Z,14.98
2023-05-11T03:51:45.571Z,15.40
2023-05-11T03:54:13.920Z,15.38
2023-05-11T03:56:41.862Z,15.35
2023-05-11T03:59:10.421Z,15.41
2023-05-11T04:01:39.055Z,15.45
2023-05-11T04:04:07.218Z,15.47
2023-05-11T04:06:35.340Z,15.47
2023-05-11T04:09:15.039Z,15.44
2023-05-11T04:11:42.826Z,15.41
2023-05-11T04:14:10.723Z,15.36
2023-05-11T04:16:39.818Z,15.36
2023-05-11T04:19:07.825Z,15.37
2023-05-11T04:21:36.217Z,15.37
2023-05-11T04:24:04.749Z,15.35
2023-05-11T04:26:34.563Z,15.37
2023-05-11T04:29:02.381Z,15.40
2023-05-11T04:31:30.429Z,15.28
2023-05-11T04:33:58.981Z,15.28
2023-05-11T04:36:27.873Z,15.38
2023-05-11T04:38:56.033Z,15.38
2023-05-11T04:41:23.962Z,15.37
2023-05-11T04:43:53.720Z,15.37
2023-05-11T04:46:22.844Z,15.34
2023-05-11T04:48:50.672Z,15.30
2023-05-11T04:51:18.530Z,15.35
2023-05-11T04:53:46.454Z,15.38
2023-05-11T04:56:14.244Z,15.36
2023-05-11T04:58:42.841Z,15.39
2023-05-11T05:01:12.009Z,15.36
2023-05-11T05:03:40.792Z,15.38
2023-05-11T05:06:08.660Z,15.43
2023-05-11T05:08:37.952Z,15.40
2023-05-11T05:11:05.784Z,15.39
2023-05-11T05:13:33.644Z,15.44
2023-05-11T05:16:01.482Z,15.48
2023-05-11T05:18:30.654Z,15.46
2023-05-11T05:20:58.465Z,15.47
2023-05-11T05:23:26.590Z,15.48
2023-05-11T05:25:54.766Z,15.52
2023-05-11T05:28:23.386Z,15.44
2023-05-11T05:30:51.269Z,15.48
2023-05-11T05:33:20.293Z,15.49
2023-05-11T05:35:49.448Z,15.46
2023-05-11T05:38:17.754Z,15.53
2023-05-11T05:40:45.608Z,15.48
2023-05-11T05:43:14.351Z,15.52
2023-05-11T05:45:42.176Z,15.56
2023-05-11T05:48:10.586Z,15.55
2023-05-11T05:50:39.517Z,15.53
2023-05-11T05:53:09.083Z,15.52
2023-05-11T05:55:37.480Z,15.59
2023-05-11T05:58:07.516Z,15.59
2023-05-11T06:00:37.076Z,15.66
2023-05-11T06:03:08.962Z,15.60
2023-05-11T06:05:37.424Z,15.47
2023-05-11T06:08:10.493Z,15.65
2023-05-11T06:10:41.643Z,15.68
2023-05-11T06:13:11.376Z,15.70
2023-05-11T06:15:43.377Z,15.68
2023-05-11T06:18:19.932Z,15.72
2023-05-11T06:20:48.410Z,15.68
2023-05-11T06:23:17.698Z,15.80
2023-05-11T06:25:47.232Z,15.83
2023-05-11T06:28:15.538Z,15.83
2023-05-11T06:30:43.542Z,15.93
2023-05-11T06:33:12.483Z,15.90
2023-05-11T06:35:41.213Z,15.94
2023-05-11T06:38:12.020Z,15.98
2023-05-11T06:40:39.946Z,15.97
2023-05-11T06:43:09.154Z,15.98
2023-05-11T06:45:48.050Z,16.02
2023-05-11T06:48:16.435Z,15.92
2023-05-11T06:50:44.369Z,16.02
2023-05-11T06:53:14.019Z,16.11
2023-05-11T06:55:41.905Z,16.11
2023-05-11T06:58:11.053Z,16.13
2023-05-11T07:00:38.905Z,16.14
2023-05-11T07:03:07.700Z,16.24
2023-05-11T07:05:36.825Z,16.16
2023-05-11T07:08:04.985Z,16.30
2023-05-11T07:10:33.116Z,16.31
2023-05-11T07:13:00.896Z,16.13
2023-05-11T07:15:30.091Z,16.22
2023-05-11T07:17:57.830Z,16.25
2023-05-11T07:20:25.715Z,16.24
2023-05-11T07:22:53.443Z,16.30
2023-05-11T07:25:21.202Z,16.27
2023-05-11T07:27:48.918Z,16.22
2023-05-11T07:30:18.662Z,16.22
2023-05-11T07:32:48.215Z,16.27
2023-05-11T07:35:16.096Z,16.30
2023-05-11T07:37:43.856Z,16.38
2023-05-11T07:40:12.200Z,16.34
2023-05-11T07:42:39.999Z,16.37
2023-05-11T07:45:08.925Z,16.36
2023-05-11T07:47:37.105Z,16.35
2023-05-11T07:50:08.307Z,16.38
2023-05-11T07:52:36.076Z,16.49
2023-05-11T07:55:04.048Z,16.50
2023-05-11T07:57:31.828Z,16.51
2023-05-11T07:59:59.675Z,16.53
2023-05-11T08:02:27.547Z,16.54
2023-05-11T08:04:55.473Z,16.55
2023-05-11T08:07:24.844Z,16.55
2023-05-11T08:09:52.724Z,16.54
2023-05-11T08:12:20.501Z,16.60
2023-05-11T08:14:51.094Z,16.67
2023-05-11T08:17:28.089Z,16.69
2023-05-11T08:19:55.830Z,16.78
2023-05-11T08:22:25.070Z,16.79
2023-05-11T08:24:52.920Z,16.77
2023-05-11T08:27:21.250Z,16.70
2023-05-11T08:29:48.969Z,16.73
2023-05-11T08:32:16.838Z,16.68
2023-05-11T08:34:45.139Z,16.78
2023-05-11T08:37:13.118Z,16.93
2023-05-11T08:42:16.574Z,16.92
2023-05-11T08:44:45.518Z,16.87
2023-05-11T08:49:44.480Z,16.92
2023-05-11T08:52:15.089Z,16.88
2023-05-11T08:54:44.223Z,16.90
2023-05-11T08:57:13.242Z,16.91
2023-05-11T08:59:42.505Z,16.93
2023-05-11T09:02:15.129Z,16.93
2023-05-11T09:04:44.576Z,16.88
2023-05-11T09:07:16.613Z,16.94
2023-05-11T09:09:47.005Z,17.00
2023-05-11T09:12:15.145Z,16.99
2023-05-11T09:14:43.116Z,17.02
2023-05-11T09:17:11.090Z,17.06
2023-05-11T09:19:57.798Z,17.13
2023-05-11T09:22:27.284Z,17.16
2023-05-11T09:24:57.600Z,17.16
2023-05-11T09:27:26.018Z,17.17
2023-05-11T09:29:55.173Z,17.28
2023-05-11T09:32:23.064Z,17.36
2023-05-11T09:34:50.879Z,17.45
2023-05-11T09:37:20.124Z,17.41
2023-05-11T09:42:23.013Z,17.53
2023-05-11T09:44:50.849Z,17.57
2023-05-11T09:47:20.005Z,17.64
2023-05-11T09:49:48.397Z,17.66
2023-05-11T09:52:17.233Z,17.68
2023-05-11T09:54:47.787Z,17.67
2023-05-11T09:57:28.091Z,17.72
2023-05-11T09:59:57.365Z,17.74
2023-05-11T10:02:27.479Z,17.71
2023-05-11T10:04:57.248Z,17.79
2023-05-11T10:07:26.645Z,17.76
2023-05-11T10:09:56.334Z,17.71
2023-05-11T10:12:27.337Z,17.70
2023-05-11T10:14:57.654Z,17.74
2023-05-11T10:17:26.540Z,17.78
2023-05-11T10:19:56.874Z,17.81
2023-05-11T10:22:26.108Z,17.89
2023-05-11T10:24:54.951Z,17.89
2023-05-11T10:27:22.768Z,17.88
2023-05-11T10:29:52.174Z,17.93
2023-05-11T10:32:21.572Z,17.94
2023-05-11T10:34:50.636Z,17.95
2023-05-11T10:37:18.722Z,18.01
2023-05-11T10:39:49.931Z,18.08
2023-05-11T10:42:36.381Z,18.16
2023-05-11T10:45:23.886Z,18.31
2023-05-11T10:48:32.796Z,18.48
2023-05-11T10:51:34.227Z,18.41
2023-05-11T10:54:12.470Z,18.28
2023-05-11T10:56:57.642Z,18.27
2023-05-11T10:59:50.956Z,18.42
2023-05-11T11:02:20.383Z,18.53
2023-05-11T11:04:50.214Z,18.64
2023-05-11T11:07:19.735Z,18.63
2023-05-11T11:09:56.210Z,18.74
2023-05-11T11:12:26.532Z,18.89
2023-05-11T11:14:55.869Z,18.89
2023-05-11T11:17:27.471Z,19.11
2023-05-11T11:19:55.626Z,19.26
2023-05-11T11:22:48.625Z,19.42
2023-05-11T11:25:37.909Z,19.32
2023-05-11T11:28:05.892Z,19.55
2023-05-11T11:30:33.641Z,19.55
2023-05-11T11:33:37.552Z,19.53
2023-05-11T11:36:05.965Z,19.58
2023-05-11T11:38:34.015Z,19.55
2023-05-11T11:41:02.444Z,19.55
2023-05-11T11:43:45.579Z,19.54
2023-05-11T11:46:26.447Z,19.52
2023-05-11T11:49:08.151Z,19.63
2023-05-11T11:51:37.416Z,19.61
2023-05-11T11:54:08.861Z,19.58
2023-05-11T11:56:45.022Z,19.54
2023-05-11T11:59:15.313Z,19.60
2023-05-11T12:01:45.113Z,19.80
2023-05-11T12:04:46.038Z,19.89
2023-05-11T12:07:16.288Z,19.95
2023-05-11T12:09:47.455Z,20.07
2023-05-11T12:12:18.310Z,20.13
2023-05-11T12:14:49.184Z,20.20
2023-05-11T12:17:25.082Z,20.02
2023-05-11T12:19:54.838Z,19.94
2023-05-11T12:22:26.426Z,19.93
2023-05-11T12:24:58.914Z,20.10
2023-05-11T12:27:28.189Z,20.08
2023-05-11T12:29:57.261Z,19.95
2023-05-11T12:32:29.292Z,19.88
2023-05-11T12:35:03.045Z,19.86
2023-05-11T12:37:31.700Z,20.01
2023-05-11T12:40:00.560Z,20.24
2023-05-11T12:42:28.544Z,20.50
2023-05-11T12:44:57.170Z,20.36
2023-05-11T12:47:25.354Z,20.12
2023-05-11T12:49:53.475Z,19.95
2023-05-11T12:52:25.254Z,19.98
2023-05-11T12:54:53.946Z,19.95
2023-05-11T12:57:25.921Z,20.16
2023-05-11T13:00:10.082Z,20.25
2023-05-11T13:02:45.522Z,20.14
2023-05-11T13:05:14.603Z,19.98
2023-05-11T13:07:44.489Z,19.79
2023-05-11T13:10:13.876Z,20.14
2023-05-11T13:12:52.078Z,20.22
2023-05-11T13:15:21.745Z,20.09
2023-05-11T13:17:56.606Z,19.97
2023-05-11T13:20:27.376Z,19.83
2023-05-11T13:23:06.716Z,19.67
2023-05-11T13:25:35.701Z,19.43
2023-05-11T13:28:03.912Z,19.37
2023-05-11T13:30:34.167Z,19.25
2023-05-11T13:33:02.922Z,19.12
2023-05-11T13:35:30.792Z,19.02
2023-05-11T13:37:58.920Z,18.93
2023-05-11T13:40:28.054Z,18.90
2023-05-11T13:42:56.775Z,18.79
2023-05-11T13:45:24.659Z,18.73
2023-05-11T13:47:52.530Z,18.63
2023-05-11T13:50:20.329Z,18.63
2023-05-11T13:52:48.078Z,18.64
2023-05-11T13:55:16.176Z,18.52
2023-05-11T13:57:45.834Z,18.49
2023-05-11T14:00:15.146Z,18.50
2023-05-11T14:02:43.063Z,18.53
2023-05-11T14:05:10.919Z,18.47
2023-05-11T14:07:46.304Z,18.49
2023-05-11T14:10:16.001Z,18.47
2023-05-11T14:12:45.444Z,18.49
2023-05-11T14:15:13.361Z,18.52
2023-05-11T14:17:42.953Z,18.50
2023-05-11T14:20:12.237Z,18.58
2023-05-11T14:22:43.133Z,18.57
2023-05-11T14:25:11.385Z,18.56
2023-05-11T14:27:39.310Z,18.54
2023-05-11T14:30:10.115Z,18.57
2023-05-11T14:32:37.889Z,18.56
2023-05-11T14:35:06.220Z,18.58
2023-05-11T14:37:34.376Z,18.52
2023-05-11T14:40:02.150Z,18.56
2023-05-11T14:42:30.418Z,18.53
2023-05-11T14:44:58.201Z,18.50
2023-05-11T14:47:27.402Z,18.54
2023-05-11T14:49:55.197Z,18.52
2023-05-11T14:52:22.949Z,18.55
2023-05-11T14:54:50.895Z,18.51
2023-05-11T14:57:18.716Z,18.53
2023-05-11T14:59:58.515Z,18.47
2023-05-11T15:02:29.866Z,18.50
2023-05-11T15:04:57.697Z,18.50
2023-05-11T15:07:25.571Z,18.51
2023-05-11T15:09:54.019Z,18.47
2023-05-11T15:12:21.806Z,18.44
2023-05-11T15:14:49.627Z,18.48
2023-05-11T15:17:17.556Z,18.50
2023-05-11T15:19:46.821Z,18.46
2023-05-11T15:22:14.655Z,18.51
2023-05-11T15:24:42.376Z,18.47
2023-05-11T15:27:10.287Z,18.48
2023-05-11T15:29:38.014Z,18.41
2023-05-11T15:32:06.361Z,18.40
2023-05-11T15:34:41.631Z,18.36
2023-05-11T15:37:16.646Z,18.39
2023-05-11T15:39:46.141Z,18.40
2023-05-11T15:42:13.956Z,18.33
2023-05-11T15:44:41.745Z,18.26
2023-05-11T15:47:09.991Z,18.22
2023-05-11T15:49:37.867Z,18.17
2023-05-11T15:52:06.229Z,18.11
2023-05-11T15:54:36.177Z,18.07
2023-05-11T15:57:04.279Z,18.01
2023-05-11T15:59:32.535Z,17.98
2023-05-11T16:02:00.432Z,17.95
2023-05-11T16:04:28.216Z,17.92
2023-05-11T16:06:58.120Z,17.92
2023-05-11T16:09:26.673Z,17.91
2023-05-11T16:11:56.201Z,17.92
2023-05-11T16:14:23.905Z,17.88
2023-05-11T16:16:52.488Z,17.82
2023-05-11T16:19:20.353Z,17.88
2023-05-11T16:21:48.302Z,17.87
2023-05-11T16:24:16.013Z,17.88
2023-05-11T16:26:43.844Z,17.87
2023-05-11T16:29:12.955Z,17.84
2023-05-11T16:31:40.851Z,17.80
2023-05-11T16:34:08.676Z,17.86
2023-05-11T16:36:36.572Z,17.82
2023-05-11T16:39:04.680Z,17.81
2023-05-11T16:41:32.479Z,17.76
2023-05-11T16:44:00.407Z,17.79
2023-05-11T16:46:29.857Z,17.73
2023-05-11T16:48:58.652Z,17.74
2023-05-11T16:51:26.693Z,17.73
2023-05-11T16:53:54.460Z,17.78
2023-05-11T16:56:22.251Z,17.73
2023-05-11T16:58:49.992Z,17.70
2023-05-11T17:01:17.808Z,17.69
2023-05-11T17:03:47.459Z,17.66
2023-05-11T17:06:19.051Z,17.60
2023-05-11T17:08:48.346Z,17.56
2023-05-11T17:11:16.391Z,17.55
2023-05-11T17:13:44.209Z,17.53
2023-05-11T17:16:12.064Z,17.55
2023-05-11T17:18:39.878Z,17.51
2023-05-11T17:21:09.753Z,17.40
2023-05-11T17:23:37.607Z,17.46
2023-05-11T17:26:10.030Z,17.47
2023-05-11T17:28:37.958Z,17.46
2023-05-11T17:31:09.860Z,17.36
2023-05-11T17:33:37.927Z,17.43
2023-05-11T17:36:06.731Z,17.41
2023-05-11T17:38:36.191Z,17.39
2023-05-11T17:41:05.580Z,17.37
2023-05-11T17:43:33.486Z,17.36
2023-05-11T17:46:03.463Z,17.35
2023-05-11T17:48:31.470Z,17.33
2023-05-11T17:51:08.257Z,17.32
2023-05-11T17:53:37.620Z,17.28
2023-05-11T17:56:06.860Z,17.32
2023-05-11T17:58:34.641Z,17.29
2023-05-11T18:01:08.444Z,17.25
2023-05-11T18:03:36.480Z,17.25
2023-05-11T18:06:04.703Z,17.22
2023-05-11T18:08:32.842Z,17.19
2023-05-11T18:11:02.032Z,17.18
2023-05-11T18:13:31.011Z,17.21
2023-05-11T18:15:59.743Z,16.94
2023-05-11T18:18:27.995Z,17.15
2023-05-11T18:20:55.813Z,17.15
2023-05-11T18:23:23.611Z,17.10
2023-05-11T18:25:51.391Z,17.13
2023-05-11T18:28:20.466Z,17.11
2023-05-11T18:30:48.184Z,17.10
2023-05-11T18:33:16.119Z,17.08
2023-05-11T18:35:44.065Z,17.05
2023-05-11T18:38:11.884Z,17.03
2023-05-11T18:40:39.778Z,17.03
2023-05-11T18:43:07.896Z,17.04
2023-05-11T18:45:41.380Z,17.01
2023-05-11T18:48:09.357Z,16.99
2023-05-11T18:50:37.310Z,16.98
2023-05-11T18:53:05.321Z,16.98
2023-05-11T18:55:44.768Z,16.98
2023-05-11T18:58:20.583Z,16.97
2023-05-11T19:00:50.067Z,16.96
2023-05-11T19:03:19.526Z,16.94
2023-05-11T19:05:47.516Z,16.96
2023-05-11T19:08:15.343Z,16.96
2023-05-11T19:10:45.197Z,16.97
2023-05-11T19:13:13.780Z,16.96
2023-05-11T19:15:41.644Z,16.94
2023-05-11T19:18:10.823Z,16.85
2023-05-11T19:20:39.657Z,16.86
2023-05-11T19:23:07.505Z,16.86
2023-05-11T19:25:35.247Z,16.84
2023-05-11T19:28:02.981Z,16.81
2023-05-11T19:30:30.704Z,16.81
2023-05-11T19:32:59.071Z,16.79
2023-05-11T19:35:29.029Z,16.81
2023-05-11T19:37:56.841Z,16.56
2023-05-11T19:42:56.008Z,16.71
2023-05-11T19:45:24.080Z,16.76
2023-05-11T19:47:51.828Z,16.76
2023-05-11T19:50:21.770Z,16.74
2023-05-11T19:52:53.110Z,16.73
2023-05-11T19:55:21.383Z,16.73
2023-05-11T19:57:49.418Z,16.73
2023-05-11T20:00:19.469Z,16.73
2023-05-11T20:02:47.534Z,16.73
2023-05-11T20:05:15.399Z,16.71
2023-05-11T20:07:43.147Z,16.69
2023-05-11T20:10:12.849Z,16.66
2023-05-11T20:12:40.667Z,16.67
2023-05-11T20:15:09.830Z,16.68
2023-05-11T20:17:39.389Z,16.64
2023-05-11T20:20:08.536Z,16.69
2023-05-11T20:22:36.764Z,16.69
2023-05-11T20:25:04.892Z,16.68
2023-05-11T20:27:35.220Z,16.71
2023-05-11T20:30:03.476Z,16.70
2023-05-11T20:32:31.355Z,16.69
2023-05-11T20:34:59.196Z,16.69
2023-05-11T20:37:26.931Z,16.65
2023-05-11T20:39:54.663Z,16.61
2023-05-11T20:42:22.408Z,16.64
2023-05-11T20:44:51.516Z,16.65
2023-05-11T20:47:20.357Z,16.60
2023-05-11T20:49:49.987Z,16.65
2023-05-11T20:52:18.355Z,16.63
2023-05-11T20:54:48.048Z,16.62
2023-05-11T20:57:15.875Z,16.60
2023-05-11T21:02:16.154Z,16.60
2023-05-11T21:04:43.946Z,16.58
2023-05-11T21:07:11.730Z,16.54
2023-05-11T21:09:39.474Z,16.50
2023-05-11T21:12:08.154Z,16.51
2023-05-11T21:14:35.937Z,16.52
2023-05-11T21:17:03.778Z,16.48
2023-05-11T21:19:32.978Z,16.49
2023-05-11T21:22:00.823Z,16.51
2023-05-11T21:24:28.569Z,16.50
2023-05-11T21:26:56.281Z,16.50
2023-05-11T21:29:23.980Z,16.47
2023-05-11T21:31:51.949Z,16.51
2023-05-11T21:34:19.690Z,16.51
2023-05-11T21:36:48.869Z,16.47
2023-05-11T21:39:16.644Z,16.45
2023-05-11T21:41:44.316Z,16.45
2023-05-11T21:44:12.179Z,16.47
2023-05-11T21:46:39.975Z,16.48
2023-05-11T21:49:07.756Z,16.44
2023-05-11T21:51:35.736Z,16.46
2023-05-11T21:54:04.935Z,16.40
2023-05-11T21:56:32.711Z,16.45
2023-05-11T21:59:00.500Z,16.44
2023-05-11T22:01:28.389Z,16.43
2023-05-11T22:03:56.332Z,16.46
2023-05-11T22:06:24.138Z,16.44
2023-05-11T22:08:52.101Z,16.38
2023-05-11T22:11:21.658Z,16.38
2023-05-11T22:13:49.400Z,16.42
2023-05-11T22:16:17.176Z,16.41
2023-05-11T22:18:45.028Z,16.41
2023-05-11T22:21:12.763Z,16.39
2023-05-11T22:23:40.482Z,16.37
2023-05-11T22:26:08.249Z,16.14
2023-05-11T22:28:37.375Z,16.37
2023-05-11T22:31:05.120Z,16.36
2023-05-11T22:33:32.874Z,16.36
2023-05-11T22:36:00.599Z,16.34
2023-05-11T22:38:28.346Z,16.31
2023-05-11T22:40:56.115Z,16.29
2023-05-11T22:43:23.843Z,16.30
2023-05-11T22:45:52.967Z,16.32
2023-05-11T22:48:20.778Z,16.36
2023-05-11T22:50:48.494Z,16.33
2023-05-11T22:53:16.512Z,16.33
2023-05-11T22:55:44.281Z,16.34
2023-05-11T22:58:12.120Z,16.30
2023-05-11T23:00:39.928Z,16.30
2023-05-11T23:03:09.155Z,16.28
2023-05-11T23:05:37.488Z,16.29
2023-05-11T23:08:05.248Z,16.23
2023-05-11T23:10:33.061Z,16.22
2023-05-11T23:13:00.820Z,16.23
2023-05-11T23:15:28.632Z,16.27
2023-05-11T23:17:56.471Z,16.28
2023-05-11T23:20:26.171Z,16.29
2023-05-11T23:22:53.983Z,16.31
2023-05-11T23:25:21.696Z,16.29
2023-05-11T23:27:49.464Z,16.23
2023-05-11T23:30:17.874Z,16.27
2023-05-11T23:32:46.042Z,16.22
2023-05-11T23:35:14.022Z,16.02
2023-05-11T23:37:43.111Z,16.18
2023-05-11T23:40:11.357Z,16.23
2023-05-11T23:42:39.220Z,16.18
2023-05-11T23:45:08.649Z,16.17
2023-05-11T23:47:37.354Z,16.14
2023-05-11T23:50:05.872Z,16.15
2023-05-11T23:52:33.929Z,16.14
2023-05-11T23:55:03.221Z,16.16
2023-05-11T23:57:30.959Z,16.10
2023-05-11T23:59:58.866Z,16.13
